createdAt,value
2019-02-14T00:02:20.307Z,51.73
2019-02-14T00:04:47.945Z,51.03
2019-02-14T00:07:15.312Z,48.63
2019-02-14T00:09:44.039Z,50.63
2019-02-14T00:12:11.403Z,48.20
2019-02-14T00:14:38.954Z,49.63
2019-02-14T00:17:06.370Z,48.13
2019-02-14T00:19:34.217Z,45.17
2019-02-14T00:22:01.726Z,42.10
2019-02-14T00:24:29.182Z,39.90
2019-02-14T00:26:58.243Z,42.03
2019-02-14T00:29:26.142Z,39.87
2019-02-14T00:31:53.649Z,42.33
2019-02-14T00:34:21.265Z,36.97
2019-02-14T00:36:48.764Z,40.23
2019-02-14T00:39:16.173Z,42.67
2019-02-14T00:41:43.678Z,42.40
2019-02-14T00:44:11.150Z,43.00
2019-02-14T00:46:38.592Z,39.30
2019-02-14T00:49:06.075Z,39.73
2019-02-14T00:51:33.567Z,42.33
2019-02-14T00:54:01.020Z,42.93
2019-02-14T00:56:28.745Z,44.00
2019-02-14T00:58:56.084Z,38.97
2019-02-14T01:01:23.459Z,42.23
2019-02-14T01:03:50.852Z,38.87
2019-02-14T01:06:18.311Z,38.67
2019-02-14T01:08:45.713Z,46.20
2019-02-14T01:11:13.319Z,43.37
2019-02-14T01:13:40.691Z,41.63
2019-02-14T01:16:08.142Z,41.77
2019-02-14T01:18:35.707Z,46.00
2019-02-14T01:21:03.160Z,40.17
2019-02-14T01:23:30.766Z,41.80
2019-02-14T01:25:58.113Z,39.17
2019-02-14T01:28:25.537Z,40.13
2019-02-14T01:30:52.877Z,37.23
2019-02-14T01:33:20.306Z,67.60
2019-02-14T01:35:47.710Z,70.53
2019-02-14T01:38:15.199Z,75.23
2019-02-14T01:40:42.695Z,63.37
2019-02-14T01:43:10.114Z,57.53
2019-02-14T01:45:37.642Z,52.57
2019-02-14T01:48:04.939Z,46.97
2019-02-14T01:50:32.763Z,47.10
2019-02-14T01:53:00.114Z,51.73
2019-02-14T01:55:27.464Z,51.47
2019-02-14T01:57:54.901Z,49.93
2019-02-14T02:00:22.293Z,56.77
2019-02-14T02:02:49.843Z,66.03
2019-02-14T02:05:17.259Z,52.67
2019-02-14T02:07:44.696Z,59.53
2019-02-14T02:10:12.170Z,58.37
2019-02-14T02:12:39.607Z,59.00
2019-02-14T02:15:08.732Z,58.50
2019-02-14T02:17:36.345Z,54.97
2019-02-14T02:20:04.583Z,55.60
2019-02-14T02:22:31.972Z,51.60
2019-02-14T02:24:59.511Z,53.93
2019-02-14T02:27:26.910Z,57.03
2019-02-14T02:29:55.529Z,48.40
2019-02-14T02:32:22.989Z,57.60
2019-02-14T02:34:50.446Z,57.03
2019-02-14T02:37:17.897Z,53.17
2019-02-14T02:39:45.361Z,51.97
2019-02-14T02:42:12.812Z,51.03
2019-02-14T02:44:40.194Z,49.77
2019-02-14T02:47:07.748Z,47.53
2019-02-14T02:49:35.157Z,42.40
2019-02-14T02:52:02.613Z,53.63
2019-02-14T02:54:30.019Z,43.73
2019-02-14T02:56:59.047Z,46.30
2019-02-14T02:59:26.415Z,40.87
2019-02-14T03:01:53.754Z,46.80
2019-02-14T03:04:21.102Z,46.53
2019-02-14T03:06:48.547Z,41.43
2019-02-14T03:09:16.026Z,40.87
2019-02-14T03:11:43.387Z,42.17
2019-02-14T03:14:10.909Z,42.43
2019-02-14T03:16:38.711Z,43.47
2019-02-14T03:19:06.187Z,44.00
2019-02-14T03:21:33.677Z,46.10
2019-02-14T03:24:01.076Z,41.20
2019-02-14T03:26:28.591Z,42.83
2019-02-14T03:28:55.989Z,42.67
2019-02-14T03:31:23.476Z,40.57
2019-02-14T03:33:50.938Z,43.23
2019-02-14T03:36:19.425Z,42.83
2019-02-14T03:38:47.073Z,43.83
2019-02-14T03:41:14.543Z,43.60
2019-02-14T03:43:42.222Z,42.03
2019-02-14T03:46:09.690Z,40.43
2019-02-14T03:48:37.144Z,41.57
2019-02-14T03:51:04.558Z,38.97
2019-02-14T03:53:31.988Z,38.80
2019-02-14T03:55:59.911Z,40.67
2019-02-14T03:58:27.258Z,40.93
2019-02-14T04:00:54.631Z,41.07
2019-02-14T04:03:22.122Z,44.03
2019-02-14T04:05:49.586Z,40.90
2019-02-14T04:08:17.012Z,41.17
2019-02-14T04:10:44.359Z,39.73
2019-02-14T04:13:11.828Z,44.17
2019-02-14T04:15:39.388Z,40.23
2019-02-14T04:18:06.887Z,44.80
2019-02-14T04:20:34.217Z,43.67
2019-02-14T04:23:01.573Z,41.37
2019-02-14T04:25:29.416Z,40.90
2019-02-14T04:27:56.774Z,46.07
2019-02-14T04:30:24.187Z,47.17
2019-02-14T04:32:51.914Z,47.23
2019-02-14T04:35:19.347Z,45.37
2019-02-14T04:37:46.718Z,51.27
2019-02-14T04:40:14.046Z,47.97
2019-02-14T04:42:41.464Z,53.63
2019-02-14T04:45:10.433Z,48.70
2019-02-14T04:47:37.872Z,47.97
2019-02-14T04:50:06.296Z,49.53
2019-02-14T04:52:33.640Z,47.50
2019-02-14T04:55:01.051Z,47.03
2019-02-14T04:57:28.557Z,47.77
2019-02-14T04:59:56.015Z,44.97
2019-02-14T05:02:26.614Z,48.33
2019-02-14T05:04:54.071Z,46.23
2019-02-14T05:07:21.532Z,48.60
2019-02-14T05:09:49.063Z,48.87
2019-02-14T05:12:16.796Z,58.27
2019-02-14T05:14:44.284Z,52.90
2019-02-14T05:17:11.766Z,49.87
2019-02-14T05:19:39.248Z,54.23
2019-02-14T05:22:06.753Z,56.37
2019-02-14T05:24:34.623Z,63.00
2019-02-14T05:27:02.165Z,51.50
2019-02-14T05:29:29.570Z,52.67
2019-02-14T05:31:57.028Z,54.70
2019-02-14T05:34:24.468Z,49.60
2019-02-14T05:36:54.668Z,50.90
2019-02-14T05:39:21.036Z,47.27
2019-02-14T05:41:48.762Z,48.27
2019-02-14T05:44:16.536Z,52.07
2019-02-14T05:46:43.978Z,55.97
2019-02-14T05:49:11.361Z,52.87
2019-02-14T05:51:39.975Z,54.07
2019-02-14T05:54:07.528Z,50.97
2019-02-14T05:56:34.972Z,64.40
2019-02-14T05:59:02.492Z,73.67
2019-02-14T06:01:30.620Z,83.10
2019-02-14T06:03:58.088Z,68.67
2019-02-14T06:06:25.518Z,64.40
2019-02-14T06:08:52.985Z,64.53
2019-02-14T06:11:20.406Z,66.63
2019-02-14T06:13:49.647Z,69.53
2019-02-14T06:16:17.043Z,62.93
2019-02-14T06:18:44.473Z,57.27
2019-02-14T06:21:11.907Z,50.87
2019-02-14T06:23:41.353Z,51.30
2019-02-14T06:26:08.883Z,53.93
2019-02-14T06:28:37.379Z,54.47
2019-02-14T06:31:04.850Z,62.87
2019-02-14T06:33:32.189Z,66.80
2019-02-14T06:35:59.632Z,68.47
2019-02-14T06:38:27.080Z,70.83
2019-02-14T06:40:54.615Z,71.43
2019-02-14T06:43:22.168Z,67.07
2019-02-14T06:45:50.772Z,68.37
2019-02-14T06:48:18.246Z,67.00
2019-02-14T06:50:45.628Z,68.23
2019-02-14T06:53:13.064Z,76.33
2019-02-14T06:55:42.952Z,76.27
2019-02-14T06:58:12.740Z,76.00
2019-02-14T07:00:39.448Z,82.37
2019-02-14T07:03:06.982Z,79.43
2019-02-14T07:05:34.306Z,84.70
2019-02-14T07:08:02.804Z,79.13
2019-02-14T07:10:30.133Z,72.33
2019-02-14T07:12:57.807Z,69.63
2019-02-14T07:15:25.229Z,71.47
2019-02-14T07:17:52.647Z,75.13
2019-02-14T07:20:20.029Z,72.70
2019-02-14T07:22:47.478Z,81.67
2019-02-14T07:25:14.949Z,80.13
2019-02-14T07:27:42.485Z,83.13
2019-02-14T07:30:14.008Z,77.37
2019-02-14T07:32:41.449Z,74.87
2019-02-14T07:35:09.447Z,72.67
2019-02-14T07:37:36.880Z,71.33
2019-02-14T07:40:05.975Z,66.17
2019-02-14T07:42:34.983Z,63.30
2019-02-14T07:45:02.415Z,62.93
2019-02-14T07:47:29.770Z,63.77
2019-02-14T07:49:58.635Z,61.03
2019-02-14T07:52:26.108Z,69.47
2019-02-14T07:54:53.566Z,65.90
2019-02-14T07:57:20.908Z,59.97
2019-02-14T07:59:48.383Z,65.00
2019-02-14T08:02:15.742Z,65.10
2019-02-14T08:04:43.095Z,61.47
2019-02-14T08:07:10.521Z,68.50
2019-02-14T08:09:37.931Z,66.30
2019-02-14T08:12:05.315Z,78.23
2019-02-14T08:14:32.687Z,79.27
2019-02-14T08:17:00.051Z,74.07
2019-02-14T08:19:27.461Z,71.63
2019-02-14T08:21:54.819Z,68.77
2019-02-14T08:24:22.259Z,61.50
2019-02-14T08:26:49.781Z,64.13
2019-02-14T08:29:17.191Z,61.03
2019-02-14T08:31:44.646Z,60.63
2019-02-14T08:34:12.203Z,58.87
2019-02-14T08:36:39.621Z,64.07
2019-02-14T08:39:07.078Z,61.87
2019-02-14T08:41:34.513Z,61.83
2019-02-14T08:44:01.921Z,63.17
2019-02-14T08:46:29.243Z,63.40
2019-02-14T08:48:56.695Z,62.57
2019-02-14T08:51:24.177Z,61.53
2019-02-14T08:53:53.228Z,68.10
2019-02-14T08:56:21.659Z,69.90
2019-02-14T08:58:49.080Z,73.33
2019-02-14T09:01:16.520Z,74.83
2019-02-14T09:03:43.935Z,73.33
2019-02-14T09:06:11.417Z,72.13
2019-02-14T09:08:38.912Z,71.10
2019-02-14T09:11:06.597Z,68.67
2019-02-14T09:13:34.128Z,71.67
2019-02-14T09:16:01.430Z,71.80
2019-02-14T09:18:29.620Z,77.87
2019-02-14T09:20:57.063Z,85.70
2019-02-14T09:23:24.483Z,73.87
2019-02-14T09:25:52.029Z,77.53
2019-02-14T09:28:19.396Z,69.50
2019-02-14T09:30:46.814Z,69.50
2019-02-14T09:33:15.363Z,69.03
2019-02-14T09:35:42.702Z,67.83
2019-02-14T09:38:11.029Z,63.97
2019-02-14T09:40:38.479Z,69.03
2019-02-14T09:43:05.796Z,75.00
2019-02-14T09:45:33.207Z,64.87
2019-02-14T09:48:00.723Z,68.57
2019-02-14T09:50:28.070Z,64.67
2019-02-14T09:52:55.600Z,74.67
2019-02-14T09:55:23.048Z,69.13
2019-02-14T09:57:50.613Z,81.43
2019-02-14T10:00:18.580Z,79.53
2019-02-14T10:02:45.909Z,78.63
2019-02-14T10:05:13.964Z,85.93
2019-02-14T10:07:41.452Z,80.50
2019-02-14T10:10:10.962Z,74.07
2019-02-14T10:12:38.506Z,81.77
2019-02-14T10:15:06.674Z,75.37
2019-02-14T10:17:34.055Z,78.03
2019-02-14T10:20:01.537Z,79.60
2019-02-14T10:22:28.995Z,84.87
2019-02-14T10:24:56.485Z,81.07
2019-02-14T10:27:24.010Z,93.07
2019-02-14T10:29:51.468Z,89.07
2019-02-14T10:32:18.886Z,76.63
2019-02-14T10:34:46.408Z,82.13
2019-02-14T10:37:14.105Z,75.13
2019-02-14T10:39:41.698Z,74.37
2019-02-14T10:42:09.214Z,73.97
2019-02-14T10:44:36.626Z,70.23
2019-02-14T10:47:04.160Z,82.43
2019-02-14T10:49:31.725Z,66.77
2019-02-14T10:51:59.211Z,66.37
2019-02-14T10:54:26.539Z,67.80
2019-02-14T10:56:54.058Z,67.83
2019-02-14T10:59:22.221Z,65.00
2019-02-14T11:01:49.658Z,59.90
2019-02-14T11:04:17.162Z,59.90
2019-02-14T11:06:44.570Z,60.77
2019-02-14T11:09:12.043Z,66.60
2019-02-14T11:11:41.789Z,57.37
2019-02-14T11:14:09.164Z,58.63
2019-02-14T11:16:36.579Z,54.70
2019-02-14T11:19:03.938Z,57.83
2019-02-14T11:21:31.279Z,56.30
2019-02-14T11:23:58.729Z,42.43
2019-02-14T11:26:26.220Z,50.27
2019-02-14T11:28:53.538Z,52.20
2019-02-14T11:31:22.607Z,60.63
2019-02-14T11:33:50.050Z,60.37
2019-02-14T11:36:17.853Z,64.30
2019-02-14T11:38:45.272Z,65.73
2019-02-14T11:41:13.485Z,64.83
2019-02-14T11:43:41.013Z,59.53
2019-02-14T11:46:08.408Z,52.77
2019-02-14T11:48:35.954Z,58.13
2019-02-14T11:51:03.414Z,60.87
2019-02-14T11:53:30.916Z,64.97
2019-02-14T11:55:58.326Z,81.53
2019-02-14T11:58:25.788Z,58.60
2019-02-14T12:00:53.238Z,77.73
2019-02-14T12:03:24.936Z,64.27
2019-02-14T12:05:52.402Z,54.60
2019-02-14T12:08:20.057Z,46.50
2019-02-14T12:10:47.549Z,48.87
2019-02-14T12:13:14.945Z,49.43
2019-02-14T12:15:42.298Z,51.20
2019-02-14T12:18:09.742Z,52.33
2019-02-14T12:20:39.767Z,55.50
2019-02-14T12:23:07.117Z,46.77
2019-02-14T12:25:34.623Z,51.50
2019-02-14T12:28:02.137Z,50.07
2019-02-14T12:30:29.559Z,52.00
2019-02-14T12:32:57.049Z,52.00
2019-02-14T12:35:24.456Z,47.97
2019-02-14T12:37:51.877Z,48.73
2019-02-14T12:40:19.301Z,52.80
2019-02-14T12:42:46.780Z,54.70
2019-02-14T12:45:20.504Z,57.60
2019-02-14T12:47:44.735Z,57.87
2019-02-14T12:50:12.633Z,62.53
2019-02-14T12:52:40.089Z,61.33
2019-02-14T12:55:07.495Z,59.97
2019-02-14T12:57:34.813Z,63.03
2019-02-14T13:00:02.333Z,59.40
2019-02-14T13:02:29.761Z,69.67
2019-02-14T13:04:57.174Z,63.83
2019-02-14T13:07:24.895Z,68.50
2019-02-14T13:09:52.362Z,63.50
2019-02-14T13:12:19.757Z,65.57
2019-02-14T13:14:47.196Z,65.53
2019-02-14T13:17:14.780Z,63.20
2019-02-14T13:19:42.129Z,59.70
2019-02-14T13:22:09.588Z,52.83
2019-02-14T13:24:38.439Z,58.10
2019-02-14T13:27:05.846Z,51.17
2019-02-14T13:29:33.258Z,55.73
2019-02-14T13:32:00.591Z,60.43
2019-02-14T13:34:28.101Z,71.23
2019-02-14T13:37:01.624Z,76.87
2019-02-14T13:39:29.712Z,85.53
2019-02-14T13:41:54.097Z,80.50
2019-02-14T13:44:21.616Z,75.50
2019-02-14T13:46:50.755Z,72.50
2019-02-14T13:49:18.135Z,67.17
2019-02-14T13:51:45.527Z,70.67
2019-02-14T13:54:13.001Z,62.17
2019-02-14T13:56:42.795Z,61.53
2019-02-14T13:59:10.286Z,63.20
2019-02-14T14:01:37.816Z,59.23
2019-02-14T14:04:07.057Z,58.00
2019-02-14T14:06:34.487Z,67.37
2019-02-14T14:09:01.900Z,59.90
2019-02-14T14:11:37.432Z,65.37
2019-02-14T14:14:06.670Z,71.97
2019-02-14T14:16:35.984Z,71.27
2019-02-14T14:19:06.392Z,65.53
2019-02-14T14:21:33.480Z,65.27
2019-02-14T14:24:00.958Z,61.80
2019-02-14T14:26:29.004Z,70.73
2019-02-14T14:28:56.509Z,69.10
2019-02-14T14:31:25.144Z,70.73
2019-02-14T14:33:52.571Z,66.00
2019-02-14T14:36:20.044Z,68.13
2019-02-14T14:38:47.513Z,63.53
2019-02-14T14:41:14.926Z,65.77
2019-02-14T14:43:44.405Z,72.30
2019-02-14T14:46:13.516Z,68.07
2019-02-14T14:48:40.924Z,63.83
2019-02-14T14:51:08.376Z,65.73
2019-02-14T14:53:35.931Z,66.40
2019-02-14T14:56:03.346Z,72.33
2019-02-14T14:58:30.916Z,71.13
2019-02-14T15:00:58.352Z,63.33
2019-02-14T15:03:25.766Z,63.53
2019-02-14T15:05:54.199Z,61.93
2019-02-14T15:08:23.500Z,57.97
2019-02-14T15:10:50.902Z,60.27
2019-02-14T15:13:18.421Z,73.67
2019-02-14T15:15:45.830Z,82.40
2019-02-14T15:18:13.246Z,74.77
2019-02-14T15:20:40.800Z,85.20
2019-02-14T15:23:09.355Z,85.23
2019-02-14T15:25:36.885Z,98.10
2019-02-14T15:28:04.374Z,88.47
2019-02-14T15:30:33.734Z,85.30
2019-02-14T15:33:01.133Z,91.10
2019-02-14T15:35:28.645Z,86.10
2019-02-14T15:37:56.046Z,80.73
2019-02-14T15:40:24.028Z,94.67
2019-02-14T15:42:52.419Z,102.37
2019-02-14T15:45:19.746Z,110.23
2019-02-14T15:47:47.172Z,110.73
2019-02-14T15:50:14.749Z,111.43
2019-02-14T15:52:42.306Z,120.30
2019-02-14T15:55:09.777Z,109.73
2019-02-14T15:57:37.299Z,122.10
2019-02-14T16:00:09.635Z,132.47
2019-02-14T16:02:35.920Z,119.87
2019-02-14T16:05:03.531Z,101.33
2019-02-14T16:07:31.040Z,102.03
2019-02-14T16:10:00.461Z,105.20
2019-02-14T16:12:27.692Z,101.47
2019-02-14T16:14:55.093Z,110.60
2019-02-14T16:17:22.602Z,101.37
2019-02-14T16:19:51.775Z,97.20
2019-02-14T16:22:19.568Z,110.30
2019-02-14T16:24:47.244Z,108.13
2019-02-14T16:27:15.148Z,111.07
2019-02-14T16:29:42.574Z,120.07
2019-02-14T16:32:09.978Z,112.17
2019-02-14T16:34:37.612Z,110.70
2019-02-14T16:37:06.264Z,111.73
2019-02-14T16:39:33.758Z,101.53
2019-02-14T16:42:02.888Z,99.17
2019-02-14T16:44:30.422Z,105.97
2019-02-14T16:46:58.322Z,125.03
2019-02-14T16:49:25.949Z,120.87
2019-02-14T16:51:53.456Z,110.90
2019-02-14T16:54:20.968Z,112.03
2019-02-14T16:56:48.465Z,103.53
2019-02-14T16:59:15.896Z,97.63
2019-02-14T17:01:43.471Z,100.63
2019-02-14T17:04:12.117Z,99.70
2019-02-14T17:06:48.067Z,91.03
2019-02-14T17:09:11.004Z,110.50
2019-02-14T17:11:38.617Z,109.17
2019-02-14T17:14:07.706Z,120.07
2019-02-14T17:16:35.293Z,115.90
2019-02-14T17:19:02.937Z,96.20
2019-02-14T17:21:30.349Z,115.13
2019-02-14T17:23:58.132Z,120.30
2019-02-14T17:26:26.088Z,114.23
2019-02-14T17:29:00.307Z,145.97
2019-02-14T17:31:30.574Z,115.00
2019-02-14T17:33:59.201Z,100.73
2019-02-14T17:36:27.693Z,101.37
2019-02-14T17:38:56.877Z,92.20
2019-02-14T17:41:24.347Z,91.93
2019-02-14T17:43:55.664Z,89.80
2019-02-14T17:46:26.033Z,83.00
2019-02-14T17:48:55.101Z,90.13
2019-02-14T17:51:24.757Z,94.00
2019-02-14T17:54:03.447Z,106.90
2019-02-14T17:56:32.578Z,94.10
2019-02-14T17:59:01.681Z,95.23
2019-02-14T18:01:29.329Z,94.50
2019-02-14T18:03:59.729Z,105.63
2019-02-14T18:06:27.853Z,98.30
2019-02-14T18:08:57.589Z,100.47
2019-02-14T18:11:25.121Z,101.97
2019-02-14T18:13:57.773Z,107.87
2019-02-14T18:16:25.144Z,108.53
2019-02-14T18:18:52.567Z,109.03
2019-02-14T18:21:24.045Z,113.80
2019-02-14T18:23:51.921Z,114.47
2019-02-14T18:26:19.349Z,109.13
2019-02-14T18:28:47.170Z,122.07
2019-02-14T18:31:15.287Z,106.80
2019-02-14T18:33:42.705Z,122.37
2019-02-14T18:36:10.195Z,123.40
2019-02-14T18:38:37.806Z,123.67
2019-02-14T18:41:11.097Z,123.03
2019-02-14T18:43:38.585Z,131.20
2019-02-14T18:46:06.276Z,132.63
2019-02-14T18:48:36.513Z,142.30
2019-02-14T18:51:04.155Z,136.57
2019-02-14T18:53:31.818Z,141.80
2019-02-14T18:55:59.333Z,132.00
2019-02-14T18:58:28.556Z,135.70
2019-02-14T19:00:59.422Z,124.47
2019-02-14T19:03:27.348Z,125.07
2019-02-14T19:05:54.923Z,122.23
2019-02-14T19:08:22.643Z,135.07
2019-02-14T19:10:52.047Z,137.10
2019-02-14T19:13:21.503Z,128.87
2019-02-14T19:15:52.554Z,138.10
2019-02-14T19:18:20.442Z,120.60
2019-02-14T19:20:48.035Z,121.33
2019-02-14T19:23:24.199Z,112.23
2019-02-14T19:25:47.628Z,119.30
2019-02-14T19:28:15.179Z,126.70
2019-02-14T19:30:43.295Z,120.63
2019-02-14T19:33:10.790Z,97.83
2019-02-14T19:35:38.235Z,93.97
2019-02-14T19:38:05.729Z,110.30
2019-02-14T19:40:33.277Z,101.23
2019-02-14T19:43:00.741Z,99.90
2019-02-14T19:45:36.397Z,95.57
2019-02-14T19:47:57.411Z,110.80
2019-02-14T19:50:24.904Z,103.10
2019-02-14T19:52:54.242Z,98.07
2019-02-14T19:55:21.729Z,112.07
2019-02-14T19:57:49.265Z,90.20
2019-02-14T20:00:16.740Z,92.27
2019-02-14T20:02:44.201Z,90.27
2019-02-14T20:05:12.268Z,90.03
2019-02-14T20:07:42.011Z,82.97
2019-02-14T20:10:13.115Z,82.63
2019-02-14T20:12:40.713Z,88.70
2019-02-14T20:15:09.854Z,100.57
2019-02-14T20:17:37.341Z,93.47
2019-02-14T20:20:08.308Z,91.23
2019-02-14T20:22:37.341Z,96.47
2019-02-14T20:25:11.803Z,96.63
2019-02-14T20:27:46.849Z,97.73
2019-02-14T20:30:14.584Z,85.90
2019-02-14T20:32:51.311Z,92.43
2019-02-14T20:35:18.719Z,98.23
2019-02-14T20:37:59.774Z,102.70
2019-02-14T20:40:27.442Z,105.63
2019-02-14T20:42:54.969Z,119.43
2019-02-14T20:45:22.634Z,118.17
2019-02-14T20:47:50.331Z,119.17
2019-02-14T20:50:17.966Z,111.40
2019-02-14T20:52:45.451Z,117.60
2019-02-14T20:55:14.534Z,115.17
2019-02-14T20:57:49.739Z,140.60
2019-02-14T21:00:17.484Z,125.13
2019-02-14T21:02:46.554Z,137.60
2019-02-14T21:05:14.063Z,113.07
2019-02-14T21:07:41.546Z,111.60
2019-02-14T21:10:08.989Z,116.67
2019-02-14T21:12:36.526Z,129.97
2019-02-14T21:15:04.160Z,123.27
2019-02-14T21:17:31.632Z,126.80
2019-02-14T21:19:59.140Z,124.70
2019-02-14T21:22:26.508Z,115.33
2019-02-14T21:24:54.075Z,104.87
2019-02-14T21:27:22.807Z,102.93
2019-02-14T21:29:50.246Z,98.70
2019-02-14T21:32:17.906Z,99.97
2019-02-14T21:34:45.480Z,104.30
2019-02-14T21:37:14.048Z,118.40
2019-02-14T21:39:41.623Z,111.53
2019-02-14T21:42:20.032Z,112.53
2019-02-14T21:44:38.231Z,107.23
2019-02-14T21:47:05.770Z,103.30
2019-02-14T21:49:33.309Z,93.60
2019-02-14T21:52:00.831Z,99.13
2019-02-14T21:54:29.526Z,100.83
2019-02-14T21:56:56.983Z,95.20
2019-02-14T21:59:24.355Z,98.03
2019-02-14T22:01:51.806Z,87.87
2019-02-14T22:04:20.456Z,102.03
2019-02-14T22:06:47.900Z,104.07
2019-02-14T22:09:15.314Z,106.37
2019-02-14T22:11:42.828Z,96.07
2019-02-14T22:14:10.970Z,102.20
2019-02-14T22:16:38.420Z,94.03
2019-02-14T22:19:06.227Z,105.30
2019-02-14T22:21:33.739Z,106.13
2019-02-14T22:24:01.303Z,111.07
2019-02-14T22:26:28.832Z,105.93
2019-02-14T22:28:56.320Z,109.00
2019-02-14T22:31:23.720Z,115.50
2019-02-14T22:33:51.201Z,110.33
2019-02-14T22:36:19.292Z,104.57
2019-02-14T22:38:46.624Z,100.00
2019-02-14T22:57:20.452Z,130.37
2019-02-14T22:59:47.868Z,130.87
2019-02-14T23:02:15.300Z,121.00
2019-02-14T23:04:42.821Z,148.97
2019-02-14T23:07:10.239Z,155.73
2019-02-14T23:09:37.729Z,164.50
2019-02-14T23:12:05.059Z,132.83
2019-02-14T23:14:33.606Z,139.07
2019-02-14T23:17:01.048Z,162.73
2019-02-14T23:19:29.662Z,180.17
2019-02-14T23:22:00.652Z,194.53
2019-02-14T23:24:31.081Z,179.07
2019-02-14T23:27:00.272Z,170.30
2019-02-14T23:29:28.895Z,188.80
2019-02-14T23:31:58.699Z,181.70
2019-02-14T23:34:27.463Z,181.20
2019-02-14T23:36:57.292Z,173.80
2019-02-14T23:39:25.965Z,182.80
2019-02-14T23:41:57.569Z,184.80
2019-02-14T23:44:24.767Z,174.47
2019-02-14T23:46:52.549Z,168.17
2019-02-14T23:49:20.078Z,176.77
2019-02-14T23:51:47.403Z,198.57
2019-02-14T23:54:16.517Z,176.97
2019-02-14T23:56:43.912Z,172.73
2019-02-14T23:59:11.682Z,173.10
